Time;durP1;ratioP1;P1;durP2;ratioP2;P2;SDS_P1;SDS_P2;PMS_P1;PMS_P2;Temp;Humidity;BMP_temperature;BMP_pressure;BME280_temperature;BME280_humidity;BME280_pressure;Samples;Min_cycle;Max_cycle;Signal;HPM_P1;HPM_P2
2021/08/18 00:01:01;;;;;;;26.50;16.10;;;15.20;99.90;;;;;;5053246;28;20448;-66
2021/08/18 00:03:31;;;;;;;18.57;13.40;;;15.20;99.90;;;;;;5053770;28;20440;-66
2021/08/18 00:05:58;;;;;;;25.57;15.87;;;15.20;99.90;;;;;;5053701;28;20472;-66
2021/08/18 00:08:25;;;;;;;17.20;13.40;;;15.20;99.90;;;;;;5053647;28;20810;-66
2021/08/18 00:10:52;;;;;;;19.90;14.60;;;15.20;99.90;;;;;;5053121;28;20451;-66
2021/08/18 00:13:23;;;;;;;22.20;16.80;;;15.20;99.90;;;;;;5053108;28;20472;-66
2021/08/18 00:15:51;;;;;;;23.70;16.63;;;15.20;99.90;;;;;;5053341;28;20476;-66
2021/08/18 00:18:18;;;;;;;25.70;14.83;;;15.20;99.90;;;;;;5053436;28;20439;-66
2021/08/18 00:20:46;;;;;;;22.33;15.60;;;15.20;99.90;;;;;;5053059;28;20451;-66
2021/08/18 00:23:13;;;;;;;16.90;13.67;;;15.20;99.90;;;;;;5053060;28;20786;-66
2021/08/18 00:25:40;;;;;;;22.33;16.07;;;15.20;99.90;;;;;;5053161;28;20581;-66
2021/08/18 00:28:07;;;;;;;21.63;13.97;;;15.20;99.90;;;;;;5053303;28;20452;-66
2021/08/18 00:30:34;;;;;;;23.30;15.87;;;15.20;99.90;;;;;;5052776;28;20447;-66
2021/08/18 00:33:01;;;;;;;21.00;14.90;;;15.20;99.90;;;;;;5052883;28;20476;-66
2021/08/18 00:35:28;;;;;;;23.00;15.60;;;15.20;99.90;;;;;;5052885;28;20495;-66
2021/08/18 00:37:56;;;;;;;22.80;15.10;;;15.20;99.90;;;;;;5053132;28;20445;-66
2021/08/18 00:40:23;;;;;;;24.10;18.00;;;15.20;99.90;;;;;;5052257;28;20452;-65
2021/08/18 00:42:50;;;;;;;27.20;16.50;;;15.20;99.90;;;;;;5052813;28;20440;-66
2021/08/18 00:45:20;;;;;;;23.63;16.70;;;15.20;99.90;;;;;;5052614;28;20464;-65
2021/08/18 00:47:50;;;;;;;24.47;18.07;;;15.20;99.90;;;;;;5052890;28;20452;-66
2021/08/18 00:50:19;;;;;;;24.37;17.50;;;15.20;99.90;;;;;;5052806;28;20440;-66
2021/08/18 00:52:46;;;;;;;28.17;16.90;;;15.20;99.90;;;;;;5052549;28;21057;-66
2021/08/18 00:55:16;;;;;;;27.87;19.00;;;15.20;99.90;;;;;;5052625;28;20823;-66
2021/08/18 00:57:43;;;;;;;26.10;17.40;;;15.30;99.90;;;;;;5052342;28;20839;-65
2021/08/18 01:00:12;;;;;;;30.30;19.93;;;15.30;99.90;;;;;;5052459;28;20453;-65
2021/08/18 01:02:43;;;;;;;29.30;19.17;;;15.30;99.90;;;;;;5052604;28;20488;-65
2021/08/18 01:05:12;;;;;;;27.60;18.07;;;15.30;99.90;;;;;;5052449;28;20468;-65
2021/08/18 01:07:39;;;;;;;25.53;16.80;;;15.30;99.90;;;;;;5052239;28;20444;-65
2021/08/18 01:10:08;;;;;;;23.73;17.97;;;15.30;99.90;;;;;;5052482;28;20459;-65
2021/08/18 01:12:37;;;;;;;22.60;16.30;;;15.30;99.90;;;;;;5051921;28;20444;-65
2021/08/18 01:15:05;;;;;;;28.87;18.80;;;15.30;99.90;;;;;;5051835;28;20479;-65
2021/08/18 01:17:33;;;;;;;25.57;18.67;;;15.30;99.90;;;;;;5052161;28;20451;-65
2021/08/18 01:20:01;;;;;;;29.00;18.53;;;15.30;99.90;;;;;;5052295;28;20542;-65
2021/08/18 01:22:28;;;;;;;26.23;19.63;;;15.30;99.90;;;;;;5051909;28;20487;-65
2021/08/18 01:24:55;;;;;;;21.87;19.30;;;15.30;99.90;;;;;;5052196;28;20833;-65
2021/08/18 01:27:22;;;;;;;26.40;17.60;;;15.30;99.90;;;;;;5051771;28;20456;-65
2021/08/18 01:29:51;;;;;;;29.20;17.97;;;15.30;99.90;;;;;;5052113;28;21038;-65
2021/08/18 01:32:17;;;;;;;29.23;17.37;;;15.30;99.90;;;;;;5051815;28;20449;-65
2021/08/18 01:34:44;;;;;;;26.43;17.70;;;15.30;99.90;;;;;;5051858;28;20472;-65
2021/08/18 01:37:11;;;;;;;25.10;17.00;;;15.30;99.90;;;;;;5051904;28;20459;-65
2021/08/18 01:39:38;;;;;;;27.30;17.73;;;15.40;99.90;;;;;;5052021;28;20443;-65
2021/08/18 01:42:05;;;;;;;25.07;17.60;;;15.40;99.90;;;;;;5051864;28;20535;-65
2021/08/18 01:44:33;;;;;;;25.17;17.80;;;15.40;99.90;;;;;;5051702;28;20456;-65
2021/08/18 01:47:01;;;;;;;21.30;17.73;;;15.40;99.90;;;;;;5051479;28;20937;-65
2021/08/18 01:49:28;;;;;;;27.27;16.90;;;15.40;99.90;;;;;;5051723;28;20922;-65
2021/08/18 01:51:56;;;;;;;23.37;16.27;;;15.40;99.90;;;;;;5050633;28;20451;-66
2021/08/18 01:54:22;;;;;;;26.17;18.40;;;15.40;99.90;;;;;;5051444;28;20488;-64
2021/08/18 01:56:49;;;;;;;28.93;17.93;;;15.40;99.90;;;;;;5051414;28;20535;-66
2021/08/18 01:59:16;;;;;;;29.13;17.20;;;15.40;99.90;;;;;;5051822;28;20443;-64
2021/08/18 02:01:43;;;;;;;27.43;18.03;;;15.40;99.90;;;;;;5050830;28;20531;-65
2021/08/18 02:04:11;;;;;;;21.77;16.83;;;15.40;99.90;;;;;;5051102;28;20779;-65
2021/08/18 02:06:38;;;;;;;21.00;16.40;;;15.40;99.90;;;;;;5051325;28;20436;-65
2021/08/18 02:09:05;;;;;;;30.07;18.87;;;15.40;99.90;;;;;;5051563;28;20436;-64
2021/08/18 02:11:31;;;;;;;21.80;16.43;;;15.40;99.90;;;;;;5051494;28;20446;-65
2021/08/18 02:13:58;;;;;;;20.47;14.87;;;15.40;99.90;;;;;;5050916;28;20482;-65
2021/08/18 02:16:25;;;;;;;22.77;15.87;;;15.40;99.90;;;;;;5051558;28;20448;-65
2021/08/18 02:18:52;;;;;;;23.10;16.20;;;15.40;99.90;;;;;;5051528;28;20448;-65
2021/08/18 02:21:20;;;;;;;24.47;17.17;;;15.40;99.90;;;;;;5051226;28;20456;-66
2021/08/18 02:23:47;;;;;;;22.37;17.50;;;15.40;99.90;;;;;;5050782;28;21013;-67
2021/08/18 02:26:13;;;;;;;21.10;15.53;;;15.40;99.90;;;;;;5051065;28;20961;-65
2021/08/18 02:28:40;;;;;;;25.50;17.67;;;15.40;99.90;;;;;;5051387;28;20442;-65
2021/08/18 02:31:07;;;;;;;21.63;16.00;;;15.40;99.90;;;;;;5051035;28;20543;-66
2021/08/18 02:33:34;;;;;;;20.67;15.50;;;15.50;99.90;;;;;;5050890;28;20516;-65
2021/08/18 02:36:01;;;;;;;21.33;16.50;;;15.50;99.90;;;;;;5050990;28;20475;-66
2021/08/18 02:38:29;;;;;;;24.10;15.67;;;15.50;99.90;;;;;;5051346;28;20446;-66
2021/08/18 02:40:56;;;;;;;22.13;15.40;;;15.50;99.90;;;;;;5051091;28;21060;-65
2021/08/18 02:43:23;;;;;;;23.00;16.70;;;15.50;99.90;;;;;;5051047;28;20448;-65
2021/08/18 02:45:50;;;;;;;22.60;16.43;;;15.50;99.90;;;;;;5051095;28;20790;-65
2021/08/18 02:48:17;;;;;;;21.43;16.70;;;15.40;99.90;;;;;;5051142;28;20440;-65
2021/08/18 02:50:43;;;;;;;22.23;17.13;;;15.50;99.90;;;;;;5051109;28;20801;-65
2021/08/18 02:53:10;;;;;;;24.40;17.17;;;15.50;99.90;;;;;;5050488;28;20459;-65
2021/08/18 02:55:39;;;;;;;22.27;17.53;;;15.50;99.90;;;;;;5051095;28;20468;-65
2021/08/18 02:58:05;;;;;;;22.50;16.63;;;15.50;99.90;;;;;;5051046;28;20456;-66
2021/08/18 03:00:32;;;;;;;29.50;19.90;;;15.50;99.90;;;;;;5051061;28;20451;-66
2021/08/18 03:02:59;;;;;;;28.83;18.40;;;15.40;99.90;;;;;;5052050;28;20455;-65
2021/08/18 03:05:26;;;;;;;25.30;18.40;;;15.50;99.90;;;;;;5054684;28;20550;-65
2021/08/18 03:07:53;;;;;;;27.93;18.83;;;15.50;99.90;;;;;;5054603;28;20440;-66
2021/08/18 03:10:20;;;;;;;24.33;18.70;;;15.50;99.90;;;;;;5054690;28;20444;-66
2021/08/18 03:12:48;;;;;;;27.60;19.10;;;15.50;99.90;;;;;;5054390;28;20448;-66
2021/08/18 03:15:15;;;;;;;26.93;18.33;;;15.50;99.90;;;;;;5054385;28;20494;-65
2021/08/18 03:17:42;;;;;;;29.07;20.37;;;15.50;99.90;;;;;;5054807;28;20451;-64
2021/08/18 03:20:11;;;;;;;31.57;21.90;;;15.50;99.90;;;;;;5054586;28;20534;-65
2021/08/18 03:22:38;;;;;;;32.20;22.00;;;15.50;99.90;;;;;;5054052;28;20474;-64
2021/08/18 03:25:06;;;;;;;30.47;19.83;;;15.50;99.90;;;;;;5054141;28;20546;-66
2021/08/18 03:27:33;;;;;;;28.40;21.90;;;15.50;99.90;;;;;;5054449;28;20458;-65
2021/08/18 03:30:01;;;;;;;28.10;21.00;;;15.50;99.90;;;;;;5054302;28;20451;-66
2021/08/18 03:32:28;;;;;;;34.00;22.13;;;15.50;99.90;;;;;;5053955;28;20470;-65
2021/08/18 03:34:55;;;;;;;32.10;22.47;;;15.60;99.90;;;;;;5053795;28;20484;-65
2021/08/18 03:37:21;;;;;;;33.67;22.93;;;15.60;99.90;;;;;;5054231;28;20868;-65
2021/08/18 03:39:48;;;;;;;31.27;23.13;;;15.60;99.90;;;;;;5054164;28;20768;-65
2021/08/18 03:42:16;;;;;;;32.20;22.13;;;15.60;99.90;;;;;;5053720;28;20448;-65
2021/08/18 03:44:43;;;;;;;29.83;21.77;;;15.60;99.90;;;;;;5053753;28;20653;-65
2021/08/18 03:47:11;;;;;;;34.77;24.10;;;15.60;99.90;;;;;;5054074;28;20466;-65
2021/08/18 03:49:38;;;;;;;37.40;23.87;;;15.60;99.90;;;;;;5053936;28;20450;-66
2021/08/18 03:52:07;;;;;;;31.27;23.60;;;15.60;99.90;;;;;;5053692;28;20444;-65
2021/08/18 03:54:34;;;;;;;36.17;23.97;;;15.60;99.90;;;;;;5053366;28;20958;-65
2021/08/18 03:57:01;;;;;;;32.53;23.97;;;15.60;99.90;;;;;;5053787;28;20450;-65
2021/08/18 03:59:28;;;;;;;27.47;21.90;;;15.60;99.90;;;;;;5054012;28;20440;-65
2021/08/18 04:01:54;;;;;;;29.67;21.77;;;15.60;99.90;;;;;;5053769;28;20988;-65
2021/08/18 04:04:22;;;;;;;32.37;22.20;;;15.60;99.90;;;;;;5053460;28;20472;-66
2021/08/18 04:06:49;;;;;;;31.47;22.93;;;15.60;99.90;;;;;;5053696;28;20444;-65
2021/08/18 04:09:16;;;;;;;31.23;23.50;;;15.60;99.90;;;;;;5053706;28;20875;-65
2021/08/18 04:11:43;;;;;;;32.47;21.93;;;15.70;99.90;;;;;;5053185;28;20460;-66
2021/08/18 04:14:11;;;;;;;32.03;22.27;;;15.70;99.90;;;;;;5052432;28;20522;-66
2021/08/18 04:16:38;;;;;;;31.67;21.83;;;15.70;99.90;;;;;;5053483;28;20450;-66
2021/08/18 04:19:05;;;;;;;31.90;22.67;;;15.60;99.90;;;;;;5053368;28;20917;-65
2021/08/18 04:21:33;;;;;;;30.67;21.80;;;15.60;99.90;;;;;;5052905;28;20458;-65
2021/08/18 04:24:00;;;;;;;30.97;23.00;;;15.70;99.90;;;;;;5052962;28;20938;-66
2021/08/18 04:26:27;;;;;;;31.80;21.47;;;15.60;99.90;;;;;;5053130;28;20531;-65
2021/08/18 04:28:54;;;;;;;30.20;22.77;;;15.70;99.90;;;;;;5053026;28;20450;-65
2021/08/18 04:31:21;;;;;;;29.47;22.37;;;15.60;99.90;;;;;;5052939;28;20448;-65
2021/08/18 04:33:48;;;;;;;32.70;21.83;;;15.60;99.90;;;;;;5052962;28;20448;-65
2021/08/18 04:36:16;;;;;;;33.50;24.93;;;15.60;99.90;;;;;;5053071;28;20440;-65
2021/08/18 04:38:44;;;;;;;32.37;23.77;;;15.70;99.90;;;;;;5053175;28;20941;-65
2021/08/18 04:41:11;;;;;;;34.50;21.90;;;15.70;99.90;;;;;;5052549;28;20623;-65
2021/08/18 04:43:37;;;;;;;31.37;22.83;;;15.70;99.90;;;;;;5052978;28;20993;-64
2021/08/18 04:46:04;;;;;;;32.90;21.33;;;15.70;99.90;;;;;;5052393;28;20461;-65
2021/08/18 04:48:31;;;;;;;31.07;22.57;;;15.70;99.90;;;;;;5052740;28;20440;-66
2021/08/18 04:50:59;;;;;;;33.23;22.20;;;15.70;99.90;;;;;;5051881;28;20448;-65
2021/08/18 04:53:26;;;;;;;31.57;22.90;;;15.70;99.90;;;;;;5050828;28;20502;-65
2021/08/18 04:55:54;;;;;;;29.80;23.10;;;15.70;99.90;;;;;;5050965;28;20483;-66
2021/08/18 04:58:21;;;;;;;30.87;23.23;;;15.80;99.90;;;;;;5051031;28;20443;-66
2021/08/18 05:00:47;;;;;;;32.07;24.40;;;15.80;99.90;;;;;;5050755;28;20475;-65
2021/08/18 05:03:14;;;;;;;31.60;24.30;;;15.80;99.90;;;;;;5050655;28;20451;-66
2021/08/18 05:05:41;;;;;;;35.80;22.20;;;15.90;99.90;;;;;;5050910;28;20464;-66
2021/08/18 05:08:08;;;;;;;34.17;22.83;;;15.90;99.90;;;;;;5052486;28;20444;-67
2021/08/18 05:10:35;;;;;;;31.80;24.00;;;15.90;99.90;;;;;;5052303;28;20470;-66
2021/08/18 05:13:04;;;;;;;31.40;21.80;;;16.00;99.90;;;;;;5052377;28;20443;-66
2021/08/18 05:15:31;;;;;;;32.83;23.50;;;16.00;99.90;;;;;;5052642;28;20499;-66
2021/08/18 05:17:58;;;;;;;31.60;22.20;;;16.00;99.90;;;;;;5052501;28;20787;-65
2021/08/18 05:20:25;;;;;;;30.17;23.80;;;16.10;99.90;;;;;;5052493;28;20448;-66
2021/08/18 05:22:53;;;;;;;31.57;24.70;;;16.20;99.90;;;;;;5052006;28;20451;-65
2021/08/18 05:25:19;;;;;;;30.43;23.97;;;16.20;99.90;;;;;;5052159;28;20456;-65
2021/08/18 05:27:47;;;;;;;35.90;24.10;;;16.20;99.90;;;;;;5052249;28;20448;-65
2021/08/18 05:30:16;;;;;;;29.80;24.63;;;16.30;99.90;;;;;;5051885;28;20526;-66
2021/08/18 05:32:43;;;;;;;30.83;25.50;;;16.30;99.90;;;;;;5051910;28;21304;-65
2021/08/18 05:35:13;;;;;;;31.70;23.80;;;16.40;99.90;;;;;;5051882;28;20511;-66
2021/08/18 05:37:40;;;;;;;31.47;24.63;;;16.40;99.90;;;;;;5052066;28;20444;-66
2021/08/18 05:40:08;;;;;;;31.60;23.80;;;16.40;99.90;;;;;;5051961;28;20447;-65
2021/08/18 05:42:35;;;;;;;30.90;24.67;;;16.50;99.90;;;;;;5051849;28;20448;-66
2021/08/18 05:45:02;;;;;;;27.90;23.53;;;16.60;99.90;;;;;;5051887;28;20471;-65
2021/08/18 05:47:30;;;;;;;47.83;26.63;;;16.70;99.90;;;;;;5051891;28;20445;-66
2021/08/18 05:49:56;;;;;;;30.27;24.03;;;16.80;99.90;;;;;;5051802;28;20467;-66
2021/08/18 05:52:23;;;;;;;30.13;24.17;;;16.80;99.90;;;;;;5051719;28;20502;-65
2021/08/18 05:54:50;;;;;;;29.47;24.70;;;16.80;99.90;;;;;;5051708;28;20486;-65
2021/08/18 05:57:17;;;;;;;33.17;24.60;;;16.80;99.90;;;;;;5051750;28;20448;-65
2021/08/18 05:59:43;;;;;;;27.90;23.97;;;16.80;99.90;;;;;;5051770;28;20444;-65
2021/08/18 06:02:10;;;;;;;30.90;25.77;;;16.90;99.90;;;;;;5051418;28;20451;-65
2021/08/18 06:04:38;;;;;;;31.10;26.00;;;16.90;99.90;;;;;;5051598;28;20456;-65
2021/08/18 06:07:06;;;;;;;28.80;25.77;;;17.00;99.90;;;;;;5051644;28;20463;-65
2021/08/18 06:09:33;;;;;;;32.30;25.90;;;17.00;99.90;;;;;;5051553;28;20444;-64
2021/08/18 06:12:00;;;;;;;28.93;25.57;;;17.00;99.90;;;;;;5051352;28;20444;-65
2021/08/18 06:14:27;;;;;;;29.33;26.23;;;17.10;99.90;;;;;;5051424;28;20492;-64
2021/08/18 06:16:53;;;;;;;33.53;26.90;;;17.20;99.90;;;;;;5051394;28;20450;-65
2021/08/18 06:19:20;;;;;;;30.50;25.17;;;17.30;99.90;;;;;;5051649;28;20452;-65
2021/08/18 06:21:48;;;;;;;27.27;24.37;;;17.40;99.90;;;;;;5051073;28;20853;-65
2021/08/18 06:24:26;;;;;;;28.97;25.00;;;17.40;99.90;;;;;;5051346;28;20799;-65
2021/08/18 06:26:52;;;;;;;29.93;26.80;;;17.40;99.90;;;;;;5051474;28;20483;-65
2021/08/18 06:29:20;;;;;;;31.10;27.93;;;17.40;99.90;;;;;;5051555;28;20444;-66
2021/08/18 06:31:47;;;;;;;28.33;25.50;;;17.50;99.90;;;;;;5051158;28;20450;-64
2021/08/18 06:34:14;;;;;;;31.43;28.43;;;17.50;99.90;;;;;;5051152;28;20468;-65
2021/08/18 06:36:41;;;;;;;31.47;26.97;;;17.60;99.90;;;;;;5051310;28;20475;-68
2021/08/18 06:39:09;;;;;;;26.37;23.83;;;17.60;99.90;;;;;;5054841;28;20444;-67
2021/08/18 06:41:35;;;;;;;27.77;24.93;;;17.80;99.90;;;;;;5055083;28;20497;-68
2021/08/18 06:44:02;;;;;;;28.07;25.23;;;17.80;99.90;;;;;;5055195;28;20451;-65
2021/08/18 06:46:29;;;;;;;26.33;23.63;;;17.90;99.90;;;;;;5055215;28;20919;-68
2021/08/18 06:48:56;;;;;;;26.07;23.67;;;18.00;99.90;;;;;;5055129;28;20440;-67
2021/08/18 06:51:22;;;;;;;25.93;23.53;;;18.00;99.90;;;;;;5055054;28;20452;-67
2021/08/18 06:53:49;;;;;;;27.70;25.20;;;18.10;99.90;;;;;;5055044;28;20444;-67
2021/08/18 06:56:17;;;;;;;27.73;25.40;;;18.20;99.90;;;;;;5055045;28;20484;-68
2021/08/18 06:58:44;;;;;;;28.07;25.67;;;18.40;99.90;;;;;;5054980;28;20444;-67
2021/08/18 07:01:10;;;;;;;28.53;25.80;;;18.40;99.90;;;;;;5054799;28;20443;-67
2021/08/18 07:03:37;;;;;;;26.17;23.97;;;18.50;99.90;;;;;;5055005;28;20926;-65
2021/08/18 07:06:04;;;;;;;28.57;25.83;;;18.50;99.90;;;;;;5055052;28;20467;-67
2021/08/18 07:08:30;;;;;;;28.87;26.50;;;18.50;99.90;;;;;;5054972;28;20451;-67
2021/08/18 07:10:57;;;;;;;29.47;26.87;;;18.40;99.90;;;;;;5054680;28;20811;-66
2021/08/18 07:13:25;;;;;;;30.27;27.53;;;18.30;99.90;;;;;;5054743;28;20861;-65
2021/08/18 07:15:52;;;;;;;28.47;26.07;;;18.40;99.90;;;;;;5054355;28;20491;-66
2021/08/18 07:18:18;;;;;;;28.87;26.37;;;18.40;99.90;;;;;;5054874;28;20444;-66
2021/08/18 07:20:45;;;;;;;26.60;24.40;;;18.50;99.90;;;;;;5054462;28;20444;-66
2021/08/18 07:23:12;;;;;;;29.73;27.23;;;18.50;99.90;;;;;;5054593;28;20448;-65
2021/08/18 07:25:38;;;;;;;27.93;25.80;;;18.60;99.90;;;;;;5054494;28;20456;-67
2021/08/18 07:28:05;;;;;;;27.40;25.13;;;18.70;99.90;;;;;;5054551;28;20440;-67
2021/08/18 07:30:33;;;;;;;28.60;26.30;;;18.90;99.90;;;;;;5054457;28;20444;-67
2021/08/18 07:33:00;;;;;;;27.17;24.93;;;18.90;99.90;;;;;;5054217;28;20447;-67
2021/08/18 07:35:27;;;;;;;29.80;27.20;;;19.00;99.90;;;;;;5054232;28;20992;-67
2021/08/18 07:37:54;;;;;;;27.80;25.37;;;19.00;99.90;;;;;;5054320;28;20440;-67
2021/08/18 07:40:21;;;;;;;29.50;27.00;;;19.00;99.90;;;;;;5054234;28;20447;-67
2021/08/18 07:42:48;;;;;;;27.13;25.03;;;18.80;99.90;;;;;;5054054;28;20444;-67
2021/08/18 07:45:14;;;;;;;28.07;25.57;;;18.80;99.90;;;;;;5053925;28;20828;-67
2021/08/18 07:47:42;;;;;;;29.37;27.07;;;18.90;99.90;;;;;;5054156;28;20455;-66
2021/08/18 07:50:10;;;;;;;29.37;26.83;;;18.90;99.90;;;;;;5052840;28;20444;-67
2021/08/18 07:52:37;;;;;;;27.60;25.50;;;19.00;99.90;;;;;;5053820;28;20444;-67
2021/08/18 07:55:05;;;;;;;26.83;24.80;;;19.20;99.90;;;;;;5053884;28;20571;-66
2021/08/18 07:57:34;;;;;;;28.00;25.90;;;19.10;99.90;;;;;;5053959;28;20448;-67
2021/08/18 08:00:00;;;;;;;27.80;25.30;;;18.80;99.90;;;;;;5053999;28;20448;-67
2021/08/18 08:02:27;;;;;;;27.80;25.73;;;18.70;99.90;;;;;;5053625;28;20447;-67
2021/08/18 08:04:55;;;;;;;27.93;25.80;;;18.70;99.90;;;;;;5053752;28;20970;-67
2021/08/18 08:07:22;;;;;;;28.73;26.57;;;18.70;99.90;;;;;;5053831;28;20447;-67
2021/08/18 08:09:48;;;;;;;27.77;25.67;;;18.80;99.90;;;;;;5054110;28;20444;-67
2021/08/18 08:12:15;;;;;;;27.10;25.00;;;18.90;99.90;;;;;;5053499;28;20444;-68
2021/08/18 08:14:42;;;;;;;26.70;24.80;;;19.00;99.90;;;;;;5053475;28;20476;-68
2021/08/18 08:17:08;;;;;;;25.00;23.07;;;19.10;99.90;;;;;;5053650;28;20815;-68
2021/08/18 08:19:35;;;;;;;27.67;25.57;;;19.10;99.90;;;;;;5053625;28;20445;-67
2021/08/18 08:22:04;;;;;;;25.83;24.03;;;19.10;99.90;;;;;;5053451;28;20548;-68
2021/08/18 08:24:30;;;;;;;26.17;24.27;;;19.10;99.90;;;;;;5053471;28;20471;-66
2021/08/18 08:26:57;;;;;;;26.97;24.93;;;19.20;99.90;;;;;;5053563;28;20485;-67
2021/08/18 08:29:24;;;;;;;25.70;23.80;;;19.00;99.90;;;;;;5053365;28;20452;-68
2021/08/18 08:31:50;;;;;;;24.87;23.07;;;18.90;99.90;;;;;;5053212;28;20444;-68
2021/08/18 08:34:19;;;;;;;23.13;21.60;;;18.80;99.90;;;;;;5053212;28;20470;-66
2021/08/18 08:36:46;;;;;;;22.23;20.70;;;18.90;99.90;;;;;;5053256;28;20486;-67
2021/08/18 08:39:14;;;;;;;21.43;20.00;;;19.00;99.90;;;;;;5053263;28;20444;-66
2021/08/18 08:41:43;;;;;;;21.40;20.00;;;19.10;99.90;;;;;;5053077;28;20962;-67
2021/08/18 08:44:15;;;;;;;20.30;19.00;;;19.30;99.90;;;;;;5053024;28;20960;-67
2021/08/18 08:46:43;;;;;;;20.97;19.67;;;19.70;99.90;;;;;;5053194;28;20436;-66
2021/08/18 08:49:10;;;;;;;19.47;18.33;;;20.10;99.90;;;;;;5052995;28;20444;-67
2021/08/18 08:51:37;;;;;;;20.67;19.47;;;20.10;99.90;;;;;;5052788;28;20451;-67
2021/08/18 08:54:04;;;;;;;21.53;20.23;;;20.10;99.90;;;;;;5052731;28;20471;-66
2021/08/18 08:56:33;;;;;;;20.90;19.80;;;20.10;99.90;;;;;;5052727;28;20506;-66
2021/08/18 08:59:00;;;;;;;20.40;19.30;;;19.90;99.90;;;;;;5052842;28;20444;-65
2021/08/18 09:01:26;;;;;;;20.17;19.07;;;19.80;99.90;;;;;;5052196;28;20440;-67
2021/08/18 09:03:54;;;;;;;20.27;19.10;;;19.50;99.90;;;;;;5052563;28;20455;-64
2021/08/18 09:06:22;;;;;;;20.63;19.43;;;19.50;99.90;;;;;;5052548;28;20444;-66
2021/08/18 09:08:50;;;;;;;19.23;18.23;;;19.40;99.90;;;;;;5052569;28;20531;-66
2021/08/18 09:11:19;;;;;;;19.13;18.03;;;19.50;99.90;;;;;;5052474;28;20463;-66
2021/08/18 09:13:49;;;;;;;19.13;18.13;;;19.70;99.90;;;;;;5052330;28;20452;-66
2021/08/18 09:16:18;;;;;;;19.43;18.37;;;19.70;99.90;;;;;;5052324;28;20480;-66
2021/08/18 09:18:46;;;;;;;19.30;18.30;;;19.90;99.90;;;;;;5052413;28;20858;-66
2021/08/18 09:21:36;;;;;;;18.63;17.63;;;20.10;99.90;;;;;;5052071;28;20447;-65
2021/08/18 09:24:22;;;;;;;18.00;17.10;;;20.10;99.90;;;;;;5052206;28;20860;-64
2021/08/18 09:26:51;;;;;;;18.20;17.30;;;20.20;99.90;;;;;;5052262;28;20502;-64
2021/08/18 09:29:37;;;;;;;17.87;16.97;;;20.10;99.90;;;;;;5052206;28;20448;-65
2021/08/18 09:32:28;;;;;;;17.93;17.03;;;20.00;99.90;;;;;;5052095;28;20444;-64
2021/08/18 09:34:57;;;;;;;19.33;18.43;;;19.80;99.90;;;;;;5052080;28;20475;-64
2021/08/18 09:37:24;;;;;;;19.47;18.37;;;19.80;99.90;;;;;;5052123;28;20503;-66
2021/08/18 09:39:52;;;;;;;18.13;17.23;;;19.90;99.90;;;;;;5052185;28;20498;-65
2021/08/18 09:42:39;;;;;;;18.63;17.73;;;20.00;99.90;;;;;;5051788;28;20448;-65
2021/08/18 09:45:16;;;;;;;18.43;17.50;;;20.40;99.90;;;;;;5047111;28;20542;-65
2021/08/18 09:48:05;;;;;;;16.90;16.20;;;20.40;99.90;;;;;;5052084;28;20436;-65
2021/08/18 09:50:40;;;;;;;16.60;15.90;;;20.70;99.90;;;;;;5052055;28;20781;-65
2021/08/18 09:53:09;;;;;;;17.00;16.30;;;20.90;99.90;;;;;;5051702;28;20444;-65
2021/08/18 09:55:37;;;;;;;16.80;16.10;;;21.00;99.90;;;;;;5051709;28;20480;-64
2021/08/18 09:58:15;;;;;;;17.50;16.80;;;21.10;99.90;;;;;;5051779;28;20858;-66
2021/08/18 10:00:43;;;;;;;17.53;16.83;;;21.00;99.90;;;;;;5051786;28;20455;-65
2021/08/18 10:03:10;;;;;;;17.20;16.50;;;21.20;99.90;;;;;;5051593;28;20440;-65
2021/08/18 10:05:37;;;;;;;17.00;16.30;;;21.50;99.90;;;;;;5051541;28;20456;-66
2021/08/18 10:08:04;;;;;;;16.93;16.33;;;21.60;99.90;;;;;;5051533;28;20470;-66
2021/08/18 10:10:31;;;;;;;17.70;16.90;;;21.70;99.90;;;;;;5051994;28;20448;-65
2021/08/18 10:13:00;;;;;;;17.13;16.43;;;21.60;99.90;;;;;;5050714;28;20501;-64
2021/08/18 10:15:27;;;;;;;17.53;16.83;;;21.80;99.90;;;;;;5051367;28;20471;-67
2021/08/18 10:17:55;;;;;;;17.83;17.03;;;21.70;99.90;;;;;;5051614;28;20444;-66
2021/08/18 10:20:23;;;;;;;18.00;17.30;;;21.70;99.90;;;;;;5051551;28;20444;-66
2021/08/18 10:23:00;;;;;;;17.97;17.03;;;21.60;99.90;;;;;;5051245;28;20787;-65
2021/08/18 10:25:38;;;;;;;17.10;16.40;;;21.70;99.90;;;;;;5051273;28;20559;-64
2021/08/18 10:28:07;;;;;;;17.47;16.77;;;21.80;99.90;;;;;;5051386;28;20459;-65
2021/08/18 10:30:50;;;;;;;17.47;16.80;;;22.10;99.90;;;;;;5051377;28;20452;-66
2021/08/18 10:33:54;;;;;;;18.10;17.30;;;22.40;99.90;;;;;;5051083;28;20440;-65
2021/08/18 10:36:55;;;;;;;17.90;17.07;;;22.70;99.90;;;;;;5051377;28;20476;-65
2021/08/18 10:39:34;;;;;;;18.00;17.20;;;23.10;99.90;;;;;;5047070;28;20456;-66
2021/08/18 10:42:02;;;;;;;17.57;16.83;;;23.40;99.90;;;;;;5051035;28;20925;-64
2021/08/18 10:44:40;;;;;;;18.70;17.90;;;24.10;99.90;;;;;;5051388;28;20464;-65
2021/08/18 10:47:18;;;;;;;18.30;17.50;;;24.50;99.90;;;;;;5051132;28;20435;-66
2021/08/18 10:49:46;;;;;;;18.57;17.90;;;24.60;99.90;;;;;;5051475;28;20926;-65
2021/08/18 10:52:33;;;;;;;19.03;18.33;;;24.60;99.90;;;;;;5050831;28;20853;-66
2021/08/18 10:55:08;;;;;;;18.33;17.73;;;24.80;99.90;;;;;;5050900;28;20460;-65
2021/08/18 10:57:38;;;;;;;19.40;18.70;;;24.90;99.90;;;;;;5051029;28;20482;-65
2021/08/18 11:00:29;;;;;;;19.33;18.57;;;24.80;99.90;;;;;;5051174;28;20478;-66
2021/08/18 11:03:01;;;;;;;19.43;18.83;;;25.10;99.90;;;;;;5050985;28;20824;-66
2021/08/18 11:05:48;;;;;;;19.77;18.97;;;25.10;99.90;;;;;;5051112;28;20472;-65
2021/08/18 11:08:16;;;;;;;20.47;19.57;;;25.10;99.90;;;;;;5051069;28;20570;-65
2021/08/18 11:11:15;;;;;;;19.87;18.97;;;25.00;99.90;;;;;;5051041;28;20926;-65
2021/08/18 11:13:44;;;;;;;20.47;19.47;;;24.50;99.90;;;;;;5050963;28;20444;-65
2021/08/18 11:16:13;;;;;;;20.70;19.70;;;24.30;99.90;;;;;;5099627;22;20824;-59
2021/08/18 11:18:47;;;;;;;22.10;21.10;;;23.80;99.90;;;;;;5088319;28;20462;-61
2021/08/18 11:21:20;;;;;;;21.57;20.50;;;23.20;99.90;;;;;;5090936;28;20438;-62
2021/08/18 11:23:51;;;;;;;22.30;21.20;;;23.00;99.90;;;;;;5092045;28;20445;-61
2021/08/18 11:26:22;;;;;;;23.03;22.03;;;23.00;99.90;;;;;;5094756;28;20481;-62
2021/08/18 11:28:57;;;;;;;21.30;20.30;;;22.60;99.90;;;;;;5094607;28;20782;-57
2021/08/18 11:31:48;;;;;;;21.53;20.60;;;22.40;99.90;;;;;;5094351;28;20970;-62
2021/08/18 11:34:20;;;;;;;21.47;20.47;;;22.40;99.90;;;;;;5089748;28;20482;-59
2021/08/18 11:36:47;;;;;;;22.00;21.00;;;22.50;99.90;;;;;;5094282;28;20478;-62
2021/08/18 11:39:14;;;;;;;21.50;20.60;;;22.50;99.90;;;;;;5094436;28;20833;-60
2021/08/18 11:41:45;;;;;;;21.53;20.43;;;22.50;99.90;;;;;;5094383;28;20495;-60
2021/08/18 11:44:17;;;;;;;21.80;20.87;;;22.60;99.90;;;;;;5094670;28;20438;-61
2021/08/18 11:46:44;;;;;;;21.47;20.67;;;22.70;99.90;;;;;;5094418;28;20442;-57
2021/08/18 11:49:11;;;;;;;21.70;20.73;;;22.80;99.90;;;;;;5094584;28;21043;-58
2021/08/18 11:51:38;;;;;;;21.97;20.87;;;22.80;99.90;;;;;;5094027;28;20442;-60
2021/08/18 11:54:08;;;;;;;20.67;19.77;;;22.70;99.90;;;;;;5094283;28;20496;-60
2021/08/18 11:56:34;;;;;;;21.73;20.47;;;22.90;99.90;;;;;;5094151;28;20509;-58
2021/08/18 11:59:06;;;;;;;21.80;20.80;;;22.80;99.90;;;;;;5094250;28;20779;-57
2021/08/18 12:01:33;;;;;;;21.23;20.23;;;22.90;99.90;;;;;;5094096;28;20454;-58
2021/08/18 12:04:02;;;;;;;21.50;20.50;;;23.10;99.90;;;;;;5094130;28;20453;-61
2021/08/18 12:06:34;;;;;;;21.70;20.57;;;23.00;99.90;;;;;;5093936;28;20455;-58
2021/08/18 12:09:03;;;;;;;21.00;20.03;;;22.70;99.90;;;;;;5094025;28;20442;-61
2021/08/18 12:11:35;;;;;;;20.93;19.97;;;22.70;99.90;;;;;;5093845;28;20962;-61
2021/08/18 12:14:12;;;;;;;22.40;21.37;;;22.60;99.90;;;;;;5093851;28;20442;-62
2021/08/18 12:16:39;;;;;;;21.10;20.10;;;22.60;99.90;;;;;;5093998;28;20478;-59
2021/08/18 12:19:23;;;;;;;20.40;19.57;;;22.60;99.90;;;;;;5093925;28;20438;-59
2021/08/18 12:22:18;;;;;;;22.07;20.97;;;22.80;99.90;;;;;;5093702;28;20439;-58
2021/08/18 12:24:48;;;;;;;23.57;22.37;;;23.40;99.90;;;;;;5046682;28;20474;-60
2021/08/18 12:27:22;;;;;;;23.70;22.60;;;23.60;99.90;;;;;;5093642;28;20434;-62
2021/08/18 12:30:00;;;;;;;24.10;23.00;;;23.60;99.90;;;;;;5093760;28;20465;-63
2021/08/18 12:32:27;;;;;;;24.70;23.50;;;23.70;99.90;;;;;;5093286;28;20435;-59
2021/08/18 12:34:58;;;;;;;23.50;22.50;;;23.30;99.90;;;;;;5093014;28;20462;-57
2021/08/18 12:37:26;;;;;;;25.40;23.90;;;23.60;99.90;;;;;;5093281;28;20891;-60